KNGU/NGU METAR and TAF weather

Enter ICAO airport designator
Station Type Date Time Source
KNGU METAR 2019/10/23 11:59 UTC NOAA

KNGU 231159Z 30009KT 10SM FEW009 15/13 A3004 RMK AO2 SLP171 70004 T01500128 10172 20144 53034


Station Type Date Time Source
KNGU Decoded METAR 2019/10/23 11:59 UTC NOAA

Norfolk, Naval Air Station, VA, United States (KNGU) 36-56-01N 076-17-45W 8M
Oct 23, 2019 - 07:59 AM EDT / 2019.10.23 1159 UTC
Wind: from the WNW (300 degrees) at 10 MPH (9 KT):0
Visibility: 10 mile(s):0
Sky conditions: mostly clear
Temperature: 59.0 F (15.0 C)
Dew Point: 55.0 F (12.8 C)
Relative Humidity: 86%
Pressure (altimeter): 30.04 in. Hg (1017 hPa)
Pressure tendency: 0.10 inches (3.4 hPa) higher than three hours ago
ob: KNGU 231159Z 30009KT 10SM FEW009 15/13 A3004 RMK AO2 SLP171 70004 T01500128 10172 20144 53034
cycle: 12

Station Type Date Time Source
KNGU TAF 2019/10/23 07:06 UTC NOAA

TAF KNGU 2307/2407 30009KT 9999 FEW080 QNH2984INS
FM232200 VRB05KT 9999 SKC QNH3013INS T15/2310Z T20/2319Z FN00194

Example: see airport list